createdAt,value
2023-04-25T00:00:53.446Z,96.55
2023-04-25T00:03:20.214Z,96.53
2023-04-25T00:05:46.959Z,96.07
2023-04-25T00:08:13.858Z,96.47
2023-04-25T00:10:40.371Z,96.80
2023-04-25T00:13:07.147Z,96.98
2023-04-25T00:15:33.590Z,97.72
2023-04-25T00:18:00.038Z,97.34
2023-04-25T00:20:26.459Z,96.92
2023-04-25T00:22:54.312Z,96.80
2023-04-25T00:25:21.083Z,97.03
2023-04-25T00:27:47.627Z,97.32
2023-04-25T00:30:14.899Z,97.34
2023-04-25T00:32:41.446Z,97.75
2023-04-25T00:35:08.380Z,98.28
2023-04-25T00:37:35.085Z,97.48
2023-04-25T00:40:01.575Z,97.30
2023-04-25T00:42:27.991Z,97.32
2023-04-25T00:44:54.533Z,97.49
2023-04-25T00:47:21.613Z,97.59
2023-04-25T00:49:48.099Z,97.47
2023-04-25T00:52:14.676Z,97.73
2023-04-25T00:54:41.292Z,97.97
2023-04-25T00:57:07.856Z,98.09
2023-04-25T00:59:34.807Z,97.93
2023-04-25T01:02:02.166Z,97.69
2023-04-25T01:04:29.827Z,97.97
2023-04-25T01:06:56.642Z,98.26
2023-04-25T01:09:23.551Z,98.40
2023-04-25T01:11:50.622Z,98.18
2023-04-25T01:14:17.227Z,97.78
2023-04-25T01:16:43.829Z,97.87
2023-04-25T01:19:14.449Z,97.56
2023-04-25T01:21:41.326Z,97.76
2023-04-25T01:24:07.930Z,97.80
2023-04-25T01:26:35.856Z,98.50
2023-04-25T01:29:02.913Z,98.22
2023-04-25T01:31:29.945Z,97.98
2023-04-25T01:33:56.483Z,97.83
2023-04-25T01:36:23.297Z,97.78
2023-04-25T01:38:50.646Z,97.72
2023-04-25T01:41:18.807Z,97.97
2023-04-25T01:43:46.117Z,97.97
2023-04-25T01:46:13.325Z,97.94
2023-04-25T01:48:39.904Z,98.39
2023-04-25T01:51:07.217Z,98.24
2023-04-25T01:53:34.632Z,98.55
2023-04-25T01:56:02.809Z,98.24
2023-04-25T01:58:33.800Z,98.66
2023-04-25T02:01:03.114Z,98.75
2023-04-25T02:03:37.051Z,98.68
2023-04-25T02:06:06.703Z,98.69
2023-04-25T02:08:38.141Z,98.71
2023-04-25T02:11:04.639Z,99.10
2023-04-25T02:13:37.945Z,99.42
2023-04-25T02:16:15.872Z,99.65
2023-04-25T02:18:42.355Z,99.71
2023-04-25T02:21:08.922Z,99.61
2023-04-25T02:23:36.150Z,99.52
2023-04-25T02:26:03.299Z,99.64
2023-04-25T02:28:30.238Z,99.61
2023-04-25T02:30:56.759Z,99.67
2023-04-25T02:33:24.680Z,100.00
2023-04-25T02:35:51.078Z,100.00
2023-04-25T02:38:17.534Z,100.00
2023-04-25T02:40:44.143Z,100.00
2023-04-25T02:43:10.603Z,100.00
2023-04-25T02:45:37.204Z,100.00
2023-04-25T02:48:05.013Z,100.00
2023-04-25T02:50:32.514Z,100.00
2023-04-25T02:52:59.366Z,100.00
2023-04-25T02:55:31.818Z,100.00
2023-04-25T02:58:00.784Z,100.00
2023-04-25T03:00:47.789Z,100.00
2023-04-25T03:03:18.797Z,100.00
2023-04-25T03:05:47.750Z,100.00
2023-04-25T03:08:14.403Z,100.00
2023-04-25T03:10:40.979Z,100.00
2023-04-25T03:13:09.480Z,100.00
2023-04-25T03:15:37.244Z,100.00
2023-04-25T03:18:04.426Z,100.00
2023-04-25T03:20:31.043Z,100.00
2023-04-25T03:22:57.767Z,100.00
2023-04-25T03:25:24.381Z,100.00
2023-04-25T03:27:50.834Z,100.00
2023-04-25T03:30:17.863Z,100.00
2023-04-25T03:32:45.481Z,100.00
2023-04-25T03:35:16.028Z,100.00
2023-04-25T03:37:46.230Z,100.00
2023-04-25T03:40:16.899Z,100.00
2023-04-25T03:43:12.798Z,100.00
2023-04-25T03:45:43.709Z,100.00
2023-04-25T03:48:10.197Z,100.00
2023-04-25T03:50:36.677Z,100.00
2023-04-25T03:53:03.283Z,100.00
2023-04-25T03:55:41.302Z,100.00
2023-04-25T03:58:09.837Z,100.00
2023-04-25T04:00:37.649Z,100.00
2023-04-25T04:03:05.020Z,100.00
2023-04-25T04:05:32.270Z,100.00
2023-04-25T04:07:58.705Z,100.00
2023-04-25T04:10:27.011Z,100.00
2023-04-25T04:12:55.600Z,100.00
2023-04-25T04:15:22.071Z,100.00
2023-04-25T04:17:49.600Z,99.87
2023-04-25T04:20:18.109Z,100.00
2023-04-25T04:22:44.772Z,100.00
2023-04-25T04:25:13.809Z,100.00
2023-04-25T04:28:09.686Z,99.61
2023-04-25T04:30:52.116Z,99.16
2023-04-25T04:33:20.488Z,99.42
2023-04-25T04:35:53.189Z,99.98
2023-04-25T04:38:20.641Z,100.00
2023-04-25T04:40:48.610Z,100.00
2023-04-25T04:43:24.014Z,100.00
2023-04-25T04:46:08.198Z,100.00
2023-04-25T04:48:54.313Z,100.00
2023-04-25T04:51:48.897Z,100.00
2023-04-25T04:54:37.418Z,100.00
2023-04-25T04:57:33.925Z,100.00
2023-04-25T05:00:19.920Z,100.00
2023-04-25T05:02:55.448Z,100.00
2023-04-25T05:05:43.378Z,100.00
2023-04-25T05:08:36.449Z,100.00
2023-04-25T05:11:23.165Z,100.00
2023-04-25T05:13:57.535Z,100.00
2023-04-25T05:16:43.585Z,100.00
2023-04-25T05:19:28.588Z,100.00
2023-04-25T05:22:12.863Z,100.00
2023-04-25T05:24:57.846Z,100.00
2023-04-25T05:27:44.253Z,100.00
2023-04-25T05:30:28.126Z,100.00
2023-04-25T05:32:59.881Z,100.00
2023-04-25T05:35:27.490Z,100.00
2023-04-25T05:37:53.961Z,99.82
2023-04-25T05:40:30.601Z,99.76
2023-04-25T05:43:11.401Z,99.02
2023-04-25T05:45:54.462Z,98.22
2023-04-25T05:48:32.530Z,97.68
2023-04-25T05:51:10.262Z,97.38
2023-04-25T05:53:55.803Z,97.05
2023-04-25T05:56:22.305Z,96.92
2023-04-25T05:58:52.228Z,96.24
2023-04-25T06:01:18.693Z,96.21
2023-04-25T06:03:45.953Z,96.06
2023-04-25T06:06:13.228Z,95.50
2023-04-25T06:08:39.772Z,95.28
2023-04-25T06:11:06.945Z,94.63
2023-04-25T06:13:33.759Z,95.42
2023-04-25T06:16:00.567Z,95.31
2023-04-25T06:18:27.734Z,94.54
2023-04-25T06:20:54.153Z,94.50
2023-04-25T06:23:20.774Z,93.73
2023-04-25T06:26:01.489Z,93.90
2023-04-25T06:28:28.827Z,93.12
2023-04-25T06:30:55.431Z,93.39
2023-04-25T06:33:23.061Z,93.19
2023-04-25T06:35:50.018Z,92.96
2023-04-25T06:38:19.760Z,93.45
2023-04-25T06:40:50.548Z,93.71
2023-04-25T06:43:18.026Z,93.08
2023-04-25T06:46:05.422Z,92.90
2023-04-25T06:48:35.711Z,92.16
2023-04-25T06:51:02.372Z,91.60
2023-04-25T06:53:29.007Z,90.79
2023-04-25T06:55:59.492Z,90.51
2023-04-25T06:58:31.245Z,91.05
2023-04-25T07:01:16.886Z,90.31
2023-04-25T07:03:43.794Z,90.51
2023-04-25T07:06:16.192Z,90.95
2023-04-25T07:08:42.937Z,90.55
2023-04-25T07:11:09.445Z,91.45
2023-04-25T07:13:37.347Z,91.76
2023-04-25T07:16:04.823Z,89.43
2023-04-25T07:18:33.523Z,88.20
2023-04-25T07:21:00.699Z,87.70
2023-04-25T07:23:28.112Z,87.67
2023-04-25T07:25:54.860Z,87.13
2023-04-25T07:28:24.535Z,84.71
2023-04-25T07:30:51.193Z,83.34
2023-04-25T07:33:18.072Z,83.93
2023-04-25T07:35:44.443Z,85.07
2023-04-25T07:38:13.640Z,84.85
2023-04-25T07:40:40.823Z,84.46
2023-04-25T07:43:09.394Z,83.51
2023-04-25T07:45:47.866Z,84.36
2023-04-25T07:48:20.177Z,82.74
2023-04-25T07:50:47.648Z,81.15
2023-04-25T07:53:15.428Z,80.06
2023-04-25T07:55:49.658Z,79.90
2023-04-25T07:58:22.185Z,79.86
2023-04-25T08:00:52.019Z,79.38
2023-04-25T08:03:30.209Z,79.97
2023-04-25T08:05:59.108Z,80.59
2023-04-25T08:08:28.466Z,79.54
2023-04-25T08:10:55.453Z,79.71
2023-04-25T08:13:21.875Z,80.79
2023-04-25T08:15:48.717Z,79.89
2023-04-25T08:18:17.545Z,79.11
2023-04-25T08:20:45.278Z,78.21
2023-04-25T08:23:13.484Z,77.93
2023-04-25T08:25:50.289Z,78.42
2023-04-25T08:28:19.674Z,79.16
2023-04-25T08:30:47.199Z,79.09
2023-04-25T08:33:15.758Z,78.01
2023-04-25T08:36:00.986Z,77.13
2023-04-25T08:38:29.126Z,76.33
2023-04-25T08:40:56.543Z,75.49
2023-04-25T08:43:24.368Z,73.41
2023-04-25T08:45:54.986Z,70.78
2023-04-25T08:48:37.192Z,69.43
2023-04-25T08:53:43.597Z,68.82
2023-04-25T08:56:14.095Z,70.08
2023-04-25T08:58:41.215Z,68.11
2023-04-25T09:01:08.056Z,67.46
2023-04-25T09:03:42.882Z,65.34
2023-04-25T09:06:12.025Z,65.65
2023-04-25T09:08:41.001Z,64.33
2023-04-25T09:11:08.430Z,66.06
2023-04-25T09:13:35.142Z,65.36
2023-04-25T09:16:19.912Z,65.51
2023-04-25T09:19:40.139Z,65.89
2023-04-25T09:22:19.266Z,63.46
2023-04-25T09:24:50.880Z,65.73
2023-04-25T09:27:23.788Z,63.10
2023-04-25T09:30:01.421Z,62.92
2023-04-25T09:32:32.960Z,61.02
2023-04-25T09:35:00.882Z,59.53
2023-04-25T09:37:31.918Z,57.12
2023-04-25T09:40:19.532Z,57.08
2023-04-25T09:43:00.224Z,55.54
2023-04-25T09:45:31.173Z,56.00
2023-04-25T09:47:59.049Z,57.12
2023-04-25T09:50:30.530Z,55.23
2023-04-25T09:53:06.556Z,54.46
2023-04-25T09:55:50.274Z,56.36
2023-04-25T09:58:17.540Z,55.64
2023-04-25T10:00:44.565Z,56.42
2023-04-25T10:03:26.577Z,55.92
2023-04-25T10:06:20.676Z,56.49
2023-04-25T10:08:53.112Z,55.28
2023-04-25T10:11:20.342Z,54.10
2023-04-25T10:13:46.937Z,52.79
2023-04-25T10:16:14.224Z,55.19
2023-04-25T10:18:40.725Z,54.57
2023-04-25T10:21:08.024Z,54.39
2023-04-25T10:23:35.754Z,54.50
2023-04-25T10:26:02.795Z,51.94
2023-04-25T10:28:29.393Z,51.32
2023-04-25T10:31:04.229Z,49.35
2023-04-25T10:33:38.401Z,48.86
2023-04-25T10:36:12.422Z,49.79
2023-04-25T10:38:39.386Z,48.18
2023-04-25T10:41:10.998Z,50.55
2023-04-25T10:43:45.227Z,47.71
2023-04-25T10:46:30.750Z,47.63
2023-04-25T10:49:02.725Z,47.80
2023-04-25T10:51:51.011Z,54.12
2023-04-25T10:54:21.102Z,57.10
2023-04-25T10:56:49.518Z,60.67
2023-04-25T10:59:18.021Z,62.46
2023-04-25T11:01:57.836Z,64.02
2023-04-25T11:04:26.421Z,66.67
2023-04-25T11:08:03.736Z,67.41
2023-04-25T11:10:32.824Z,71.33
2023-04-25T11:12:59.722Z,75.30
2023-04-25T11:15:26.774Z,74.33
2023-04-25T11:17:53.764Z,73.84
2023-04-25T11:20:20.538Z,71.06
2023-04-25T11:22:48.670Z,69.86
2023-04-25T11:25:17.544Z,70.59
2023-04-25T11:27:54.265Z,69.21
2023-04-25T11:30:21.608Z,69.36
2023-04-25T11:32:48.738Z,69.73
2023-04-25T11:35:16.146Z,70.01
2023-04-25T11:37:43.853Z,68.97
2023-04-25T11:40:12.469Z,68.98
2023-04-25T11:42:40.940Z,71.76
2023-04-25T11:45:08.848Z,74.55
2023-04-25T11:47:35.439Z,73.02
2023-04-25T11:50:06.754Z,72.74
2023-04-25T11:52:57.206Z,76.42
2023-04-25T11:55:24.229Z,79.05
2023-04-25T11:57:51.328Z,78.72
2023-04-25T12:00:21.115Z,81.15
2023-04-25T12:02:52.248Z,81.44
2023-04-25T12:07:49.036Z,80.96
2023-04-25T12:10:17.655Z,80.63
2023-04-25T12:12:46.493Z,81.46
2023-04-25T12:15:26.024Z,81.27
2023-04-25T12:17:54.820Z,79.05
2023-04-25T12:20:25.983Z,74.70
2023-04-25T12:22:53.604Z,68.49
2023-04-25T12:25:40.980Z,66.38
2023-04-25T12:28:24.474Z,68.95
2023-04-25T12:30:55.694Z,62.36
2023-04-25T12:33:22.923Z,62.44
2023-04-25T12:35:49.407Z,72.29
2023-04-25T12:38:29.886Z,56.03
2023-04-25T12:40:57.016Z,54.98
2023-04-25T12:43:23.468Z,55.19
2023-04-25T12:45:55.102Z,54.76
2023-04-25T12:48:22.216Z,48.14
2023-04-25T12:50:50.251Z,46.64
2023-04-25T12:53:17.902Z,48.79
2023-04-25T12:55:46.822Z,46.54
2023-04-25T12:58:18.268Z,43.25
2023-04-25T13:00:45.983Z,42.54
2023-04-25T13:03:13.588Z,40.65
2023-04-25T13:05:40.921Z,41.89
2023-04-25T13:08:07.825Z,42.33
2023-04-25T13:10:35.043Z,42.31
2023-04-25T13:13:02.080Z,43.65
2023-04-25T13:15:28.635Z,47.07
2023-04-25T13:17:56.268Z,45.92
2023-04-25T13:20:23.370Z,45.09
2023-04-25T13:22:49.810Z,40.01
2023-04-25T13:25:17.183Z,38.48
2023-04-25T13:27:45.110Z,39.76
2023-04-25T13:30:11.810Z,39.65
2023-04-25T13:32:38.736Z,34.55
2023-04-25T13:35:11.263Z,35.44
2023-04-25T13:37:38.672Z,34.48
2023-04-25T13:40:10.330Z,35.38
2023-04-25T13:42:37.849Z,35.56
2023-04-25T13:45:04.644Z,35.69
2023-04-25T13:47:31.942Z,36.57
2023-04-25T13:49:58.393Z,37.56
2023-04-25T13:52:28.067Z,37.18
2023-04-25T13:54:54.475Z,37.16
2023-04-25T13:57:21.161Z,37.81
2023-04-25T13:59:47.671Z,37.43
2023-04-25T14:02:14.203Z,37.84
2023-04-25T14:04:41.537Z,38.73
2023-04-25T14:07:08.029Z,38.95
2023-04-25T14:09:34.521Z,38.91
2023-04-25T14:12:01.457Z,39.39
2023-04-25T14:14:27.844Z,38.59
2023-04-25T14:16:55.058Z,39.91
2023-04-25T14:19:22.517Z,38.32
2023-04-25T14:21:48.996Z,38.07
2023-04-25T14:24:15.751Z,38.20
2023-04-25T14:26:43.397Z,38.58
2023-04-25T14:29:12.600Z,39.18
2023-04-25T14:31:41.027Z,40.21
2023-04-25T14:34:08.191Z,41.24
2023-04-25T14:36:34.781Z,42.27
2023-04-25T14:39:01.873Z,43.27
2023-04-25T14:41:28.315Z,44.56
2023-04-25T14:43:54.901Z,44.58
2023-04-25T14:46:23.042Z,44.54
2023-04-25T14:48:50.067Z,43.98
2023-04-25T14:51:16.767Z,44.31
2023-04-25T14:53:43.260Z,45.12
2023-04-25T14:56:09.777Z,44.56
2023-04-25T14:58:36.773Z,43.43
2023-04-25T15:01:03.373Z,44.27
2023-04-25T15:03:30.147Z,42.40
2023-04-25T15:05:56.779Z,42.03
2023-04-25T15:08:23.358Z,40.56
2023-04-25T15:10:50.204Z,41.19
2023-04-25T15:13:18.792Z,41.79
2023-04-25T15:15:45.244Z,41.44
2023-04-25T15:18:12.092Z,42.58
2023-04-25T15:20:38.581Z,41.85
2023-04-25T15:23:05.910Z,42.36
2023-04-25T15:25:32.595Z,43.25
2023-04-25T15:27:59.657Z,42.71
2023-04-25T15:30:26.160Z,43.90
2023-04-25T15:32:52.633Z,45.23
2023-04-25T15:35:19.427Z,44.10
2023-04-25T15:37:46.164Z,45.42
2023-04-25T15:40:15.893Z,43.54
2023-04-25T15:42:44.525Z,43.75
2023-04-25T15:45:11.926Z,42.91
2023-04-25T15:47:39.173Z,38.97
2023-04-25T15:50:08.198Z,39.55
2023-04-25T15:52:35.878Z,39.22
2023-04-25T15:55:02.845Z,40.24
2023-04-25T15:57:29.328Z,40.34
2023-04-25T15:59:56.408Z,40.11
2023-04-25T16:02:22.982Z,41.30
2023-04-25T16:04:49.899Z,41.05
2023-04-25T16:07:16.492Z,39.47
2023-04-25T16:09:42.933Z,38.23
2023-04-25T16:12:11.192Z,38.09
2023-04-25T16:14:37.733Z,38.72
2023-04-25T16:17:04.158Z,39.14
2023-04-25T16:19:31.209Z,40.26
2023-04-25T16:21:57.736Z,40.10
2023-04-25T16:24:24.458Z,40.53
2023-04-25T16:26:50.852Z,40.88
2023-04-25T16:29:17.785Z,40.90
2023-04-25T16:31:44.829Z,41.49
2023-04-25T16:34:11.274Z,42.34
2023-04-25T16:36:37.726Z,43.31
2023-04-25T16:39:04.171Z,44.79
2023-04-25T16:41:30.627Z,45.31
2023-04-25T16:43:57.097Z,43.22
2023-04-25T16:46:23.751Z,44.35
2023-04-25T16:48:50.437Z,45.71
2023-04-25T16:51:17.061Z,49.99
2023-04-25T16:53:43.562Z,46.56
2023-04-25T16:56:10.054Z,46.11
2023-04-25T16:58:36.557Z,45.34
2023-04-25T17:01:03.110Z,45.49
2023-04-25T17:03:29.766Z,46.23
2023-04-25T17:05:57.358Z,47.46
2023-04-25T17:08:24.712Z,48.90
2023-04-25T17:10:51.236Z,48.51
2023-04-25T17:13:17.876Z,48.79
2023-04-25T17:15:44.442Z,51.71
2023-04-25T17:18:11.696Z,48.98
2023-04-25T17:20:38.379Z,47.37
2023-04-25T17:23:04.824Z,44.20
2023-04-25T17:25:32.201Z,43.49
2023-04-25T17:27:59.129Z,42.42
2023-04-25T17:30:25.615Z,41.55
2023-04-25T17:32:52.290Z,41.96
2023-04-25T17:35:19.115Z,41.50
2023-04-25T17:37:45.511Z,41.64
2023-04-25T17:40:12.423Z,43.25
2023-04-25T17:42:39.729Z,43.97
2023-04-25T17:45:07.815Z,44.88
2023-04-25T17:47:34.293Z,47.40
2023-04-25T17:50:00.987Z,49.11
2023-04-25T17:52:27.973Z,48.20
2023-04-25T17:54:54.359Z,48.62
2023-04-25T17:57:25.160Z,50.72
2023-04-25T17:59:53.417Z,51.33
2023-04-25T18:02:20.287Z,53.25
2023-04-25T18:04:46.853Z,55.05
2023-04-25T18:07:13.274Z,57.54
2023-04-25T18:09:39.661Z,57.17
2023-04-25T18:12:06.425Z,57.37
2023-04-25T18:14:34.824Z,57.73
2023-04-25T18:17:01.382Z,59.28
2023-04-25T18:19:27.815Z,58.65
2023-04-25T18:21:55.947Z,59.64
2023-04-25T18:24:24.442Z,60.24
2023-04-25T18:26:53.450Z,60.29
2023-04-25T18:29:32.337Z,60.48
2023-04-25T18:31:59.895Z,61.15
2023-04-25T18:34:27.429Z,61.60
2023-04-25T18:36:55.507Z,61.75
2023-04-25T18:39:23.483Z,60.74
2023-04-25T18:41:56.444Z,60.33
2023-04-25T18:44:25.046Z,60.73
2023-04-25T18:46:52.514Z,60.39
2023-04-25T18:49:19.153Z,60.43
2023-04-25T18:51:45.624Z,60.09
2023-04-25T18:54:12.061Z,59.35
2023-04-25T18:56:38.430Z,58.59
2023-04-25T18:59:04.865Z,58.26
2023-04-25T19:01:31.467Z,58.04
2023-04-25T19:03:58.685Z,58.25
2023-04-25T19:06:28.836Z,57.77
2023-04-25T19:08:57.421Z,56.43
2023-04-25T19:11:24.268Z,56.25
2023-04-25T19:13:51.622Z,55.71
2023-04-25T19:16:18.916Z,56.06
2023-04-25T19:18:46.745Z,55.36
2023-04-25T19:21:13.298Z,56.24
2023-04-25T19:23:39.981Z,54.79
2023-04-25T19:26:06.549Z,55.92
2023-04-25T19:28:33.575Z,57.59
2023-04-25T19:31:00.176Z,57.57
2023-04-25T19:33:26.581Z,56.54
2023-04-25T19:35:53.072Z,57.11
2023-04-25T19:38:19.466Z,58.18
2023-04-25T19:40:45.861Z,57.47
2023-04-25T19:43:12.722Z,58.26
2023-04-25T19:45:39.128Z,58.72
2023-04-25T19:48:05.875Z,61.45
2023-04-25T19:50:32.430Z,64.33
2023-04-25T19:52:58.850Z,64.15
2023-04-25T19:55:25.323Z,62.55
2023-04-25T19:57:51.964Z,63.53
2023-04-25T20:00:20.063Z,62.91
2023-04-25T20:02:47.677Z,65.30
2023-04-25T20:05:16.490Z,64.10
2023-04-25T20:07:43.187Z,63.80
2023-04-25T20:10:13.883Z,63.53
2023-04-25T20:12:40.621Z,63.59
2023-04-25T20:15:11.600Z,64.91
2023-04-25T20:17:42.327Z,66.51
2023-04-25T20:20:10.726Z,67.42
2023-04-25T20:22:38.742Z,64.71
2023-04-25T20:25:07.032Z,66.63
2023-04-25T20:27:33.712Z,66.39
2023-04-25T20:30:04.498Z,67.95
2023-04-25T20:32:32.078Z,68.61
2023-04-25T20:34:58.616Z,68.81
2023-04-25T20:37:25.041Z,69.71
2023-04-25T20:39:51.526Z,70.84
2023-04-25T20:42:17.923Z,72.61
2023-04-25T20:44:44.302Z,73.71
2023-04-25T20:47:10.703Z,74.97
2023-04-25T20:49:37.091Z,75.87
2023-04-25T20:52:03.690Z,77.07
2023-04-25T20:54:31.937Z,78.06
2023-04-25T20:56:58.402Z,78.85
2023-04-25T20:59:25.299Z,79.63
2023-04-25T21:01:53.209Z,80.14
2023-04-25T21:04:20.196Z,81.25
2023-04-25T21:06:47.253Z,82.00
2023-04-25T21:09:14.076Z,82.95
2023-04-25T21:11:41.058Z,82.99
2023-04-25T21:14:07.869Z,83.42
2023-04-25T21:16:35.707Z,83.79
2023-04-25T21:19:02.269Z,82.94
2023-04-25T21:21:28.738Z,80.52
2023-04-25T21:23:55.469Z,82.03
2023-04-25T21:26:22.084Z,83.57
2023-04-25T21:28:48.596Z,83.67
2023-04-25T21:31:15.417Z,84.14
2023-04-25T21:33:41.881Z,84.47
2023-04-25T21:36:08.350Z,85.33
2023-04-25T21:38:34.944Z,86.22
2023-04-25T21:41:01.488Z,83.14
2023-04-25T21:43:28.625Z,82.77
2023-04-25T21:46:19.045Z,81.11
2023-04-25T21:48:41.715Z,83.05
2023-04-25T21:51:08.116Z,84.57
2023-04-25T21:53:34.541Z,85.90
2023-04-25T21:56:00.947Z,84.79
2023-04-25T21:58:27.485Z,83.61
2023-04-25T22:00:53.918Z,84.62
2023-04-25T22:03:20.795Z,84.80
2023-04-25T22:05:47.868Z,83.35
2023-04-25T22:08:14.430Z,83.95
2023-04-25T22:10:41.884Z,82.84
2023-04-25T22:13:08.387Z,82.66
2023-04-25T22:15:35.466Z,81.63
2023-04-25T22:18:04.349Z,82.72
2023-04-25T22:20:31.937Z,82.34
2023-04-25T22:22:58.441Z,82.80
2023-04-25T22:25:25.143Z,83.41
2023-04-25T22:27:51.744Z,84.35
2023-04-25T22:30:18.372Z,82.88
2023-04-25T22:32:44.818Z,81.71
2023-04-25T22:35:11.965Z,81.85
2023-04-25T22:37:39.064Z,81.47
2023-04-25T22:40:06.996Z,81.04
2023-04-25T22:42:40.709Z,82.05
2023-04-25T22:45:08.108Z,82.13
2023-04-25T22:47:35.960Z,81.42
2023-04-25T22:50:05.678Z,80.82
2023-04-25T22:52:34.483Z,80.18
2023-04-25T22:55:04.739Z,80.95
2023-04-25T22:57:31.342Z,81.88
2023-04-25T22:59:57.864Z,81.16
2023-04-25T23:02:27.854Z,82.46
2023-04-25T23:04:54.747Z,82.95
2023-04-25T23:07:21.520Z,82.52
2023-04-25T23:09:48.053Z,84.29
2023-04-25T23:12:17.818Z,84.45
2023-04-25T23:14:44.300Z,84.38
2023-04-25T23:17:11.460Z,85.93
2023-04-25T23:19:38.181Z,86.46
2023-04-25T23:22:05.780Z,87.58
2023-04-25T23:24:37.465Z,88.07
2023-04-25T23:27:03.937Z,88.78
2023-04-25T23:29:32.030Z,89.02
2023-04-25T23:31:59.276Z,89.71
2023-04-25T23:34:25.653Z,89.89
2023-04-25T23:36:52.103Z,89.52
2023-04-25T23:39:18.797Z,89.11
2023-04-25T23:41:45.220Z,90.05
2023-04-25T23:44:12.230Z,89.40
2023-04-25T23:46:38.916Z,89.82
2023-04-25T23:49:05.427Z,90.16
2023-04-25T23:51:32.549Z,90.86
2023-04-25T23:53:58.995Z,91.26
2023-04-25T23:56:26.647Z,91.67
2023-04-25T23:58:53.413Z,92.47
